sensor_id;sensor_type;location;lat;lon;timestamp;pressure;altitude;pressure_sealevel;temperature;humidity
3428;BME280;1727;42.624;23.406;2022-11-20T00:01:07;94181.34;;;14.39;100.00
3428;BME280;1727;42.624;23.406;2022-11-20T00:03:35;94175.41;;;14.45;100.00
3428;BME280;1727;42.624;23.406;2022-11-20T00:06:02;94152.81;;;14.34;100.00
3428;BME280;1727;42.624;23.406;2022-11-20T00:08:29;94175.09;;;14.48;100.00
3428;BME280;1727;42.624;23.406;2022-11-20T00:10:57;94189.56;;;14.60;100.00
3428;BME280;1727;42.624;23.406;2022-11-20T00:13:24;94181.97;;;14.57;100.00
3428;BME280;1727;42.624;23.406;2022-11-20T00:15:56;94180.28;;;14.64;99.80
3428;BME280;1727;42.624;23.406;2022-11-20T00:18:24;94187.31;;;14.80;99.47
3428;BME280;1727;42.624;23.406;2022-11-20T00:20:51;94179.16;;;14.90;98.81
3428;BME280;1727;42.624;23.406;2022-11-20T00:23:17;94157.56;;;14.86;97.28
3428;BME280;1727;42.624;23.406;2022-11-20T00:25:44;94168.25;;;14.93;96.05
3428;BME280;1727;42.624;23.406;2022-11-20T00:28:12;94170.53;;;15.04;95.87
3428;BME280;1727;42.624;23.406;2022-11-20T00:30:39;94154.16;;;15.00;94.53
3428;BME280;1727;42.624;23.406;2022-11-20T00:33:06;94160.72;;;15.12;92.87
3428;BME280;1727;42.624;23.406;2022-11-20T00:35:33;94163.41;;;15.27;92.17
3428;BME280;1727;42.624;23.406;2022-11-20T00:37:59;94169.16;;;15.31;91.42
3428;BME280;1727;42.624;23.406;2022-11-20T00:40:26;94171.59;;;15.40;91.35
3428;BME280;1727;42.624;23.406;2022-11-20T00:42:53;94179.78;;;15.45;91.65
3428;BME280;1727;42.624;23.406;2022-11-20T00:45:21;94176.09;;;15.55;91.03
3428;BME280;1727;42.624;23.406;2022-11-20T00:47:48;94147.44;;;15.43;91.18
3428;BME280;1727;42.624;23.406;2022-11-20T00:50:14;94160.00;;;15.41;91.33
3428;BME280;1727;42.624;23.406;2022-11-20T01:09:21;94193.56;;;16.16;85.99
3428;BME280;1727;42.624;23.406;2022-11-20T01:11:48;94166.66;;;16.13;85.74
3428;BME280;1727;42.624;23.406;2022-11-20T01:14:17;94157.69;;;16.14;85.29
3428;BME280;1727;42.624;23.406;2022-11-20T01:16:46;94160.06;;;16.08;85.25
3428;BME280;1727;42.624;23.406;2022-11-20T01:19:15;94160.53;;;16.12;85.29
3428;BME280;1727;42.624;23.406;2022-11-20T01:21:44;94175.97;;;16.08;85.11
3428;BME280;1727;42.624;23.406;2022-11-20T01:24:12;94170.22;;;16.05;82.55
3428;BME280;1727;42.624;23.406;2022-11-20T01:26:42;94159.97;;;16.17;82.63
3428;BME280;1727;42.624;23.406;2022-11-20T01:29:12;94146.31;;;16.28;82.58
3428;BME280;1727;42.624;23.406;2022-11-20T01:31:39;94148.13;;;16.27;83.21
3428;BME280;1727;42.624;23.406;2022-11-20T01:34:09;94130.25;;;16.29;83.83
3428;BME280;1727;42.624;23.406;2022-11-20T01:36:37;94137.81;;;16.18;82.93
3428;BME280;1727;42.624;23.406;2022-11-20T01:39:05;94133.63;;;16.23;82.73
3428;BME280;1727;42.624;23.406;2022-11-20T01:41:33;94117.56;;;16.25;84.00
3428;BME280;1727;42.624;23.406;2022-11-20T01:44:21;94128.31;;;16.08;85.01
3428;BME280;1727;42.624;23.406;2022-11-20T01:46:53;94116.34;;;16.13;85.73
3428;BME280;1727;42.624;23.406;2022-11-20T01:49:25;94133.44;;;16.10;86.48
3428;BME280;1727;42.624;23.406;2022-11-20T01:51:56;94132.78;;;16.08;85.57
3428;BME280;1727;42.624;23.406;2022-11-20T01:54:28;94110.88;;;15.99;86.61
3428;BME280;1727;42.624;23.406;2022-11-20T01:56:58;94111.13;;;15.75;89.02
3428;BME280;1727;42.624;23.406;2022-11-20T01:59:28;94106.94;;;15.66;89.65
3428;BME280;1727;42.624;23.406;2022-11-20T02:01:56;94105.94;;;15.67;89.68
3428;BME280;1727;42.624;23.406;2022-11-20T02:04:24;94117.63;;;15.72;90.20
3428;BME280;1727;42.624;23.406;2022-11-20T02:06:55;94105.47;;;15.78;89.93
3428;BME280;1727;42.624;23.406;2022-11-20T02:09:24;94122.72;;;15.74;89.77
3428;BME280;1727;42.624;23.406;2022-11-20T02:11:51;94129.94;;;15.80;89.34
3428;BME280;1727;42.624;23.406;2022-11-20T02:14:18;94132.41;;;15.82;88.66
3428;BME280;1727;42.624;23.406;2022-11-20T02:16:46;94139.16;;;15.84;88.71
3428;BME280;1727;42.624;23.406;2022-11-20T02:19:22;94134.13;;;15.89;88.52
3428;BME280;1727;42.624;23.406;2022-11-20T02:21:56;94129.19;;;15.86;88.25
3428;BME280;1727;42.624;23.406;2022-11-20T02:24:26;94132.03;;;15.85;86.08
3428;BME280;1727;42.624;23.406;2022-11-20T02:26:55;94119.06;;;15.90;85.97
3428;BME280;1727;42.624;23.406;2022-11-20T02:29:26;94121.66;;;15.98;86.09
3428;BME280;1727;42.624;23.406;2022-11-20T02:31:55;94130.16;;;16.08;85.30
3428;BME280;1727;42.624;23.406;2022-11-20T02:34:22;94138.53;;;16.11;83.07
3428;BME280;1727;42.624;23.406;2022-11-20T02:36:50;94118.00;;;16.28;83.12
3428;BME280;1727;42.624;23.406;2022-11-20T02:39:19;94140.75;;;16.23;82.78
3428;BME280;1727;42.624;23.406;2022-11-20T02:41:48;94126.13;;;16.27;81.98
3428;BME280;1727;42.624;23.406;2022-11-20T02:44:15;94126.03;;;16.35;80.16
3428;BME280;1727;42.624;23.406;2022-11-20T02:46:42;94150.31;;;16.53;78.25
3428;BME280;1727;42.624;23.406;2022-11-20T02:49:08;94145.63;;;16.85;76.95
3428;BME280;1727;42.624;23.406;2022-11-20T02:51:35;94158.38;;;16.96;75.90
3428;BME280;1727;42.624;23.406;2022-11-20T02:54:03;94160.56;;;17.07;75.84
3428;BME280;1727;42.624;23.406;2022-11-20T02:56:30;94169.28;;;17.22;74.72
3428;BME280;1727;42.624;23.406;2022-11-20T02:58:58;94166.13;;;17.33;74.48
3428;BME280;1727;42.624;23.406;2022-11-20T03:01:25;94161.59;;;17.49;73.71
3428;BME280;1727;42.624;23.406;2022-11-20T03:03:52;94168.56;;;17.71;71.48
3428;BME280;1727;42.624;23.406;2022-11-20T03:06:20;94188.69;;;17.87;71.28
3428;BME280;1727;42.624;23.406;2022-11-20T03:08:46;94192.66;;;17.98;70.81
3428;BME280;1727;42.624;23.406;2022-11-20T03:11:13;94206.44;;;18.08;71.01
3428;BME280;1727;42.624;23.406;2022-11-20T03:13:40;94182.53;;;18.08;70.41
3428;BME280;1727;42.624;23.406;2022-11-20T03:16:11;94181.78;;;18.20;70.67
3428;BME280;1727;42.624;23.406;2022-11-20T03:18:38;94195.97;;;18.27;70.87
3428;BME280;1727;42.624;23.406;2022-11-20T03:21:06;94191.91;;;18.32;69.95
3428;BME280;1727;42.624;23.406;2022-11-20T03:23:32;94188.25;;;18.39;70.00
3428;BME280;1727;42.624;23.406;2022-11-20T03:26:14;94199.31;;;18.43;70.07
3428;BME280;1727;42.624;23.406;2022-11-20T03:28:42;94193.56;;;18.39;70.36
3428;BME280;1727;42.624;23.406;2022-11-20T03:31:15;94205.00;;;18.40;70.08
3428;BME280;1727;42.624;23.406;2022-11-20T03:33:42;94201.97;;;18.43;70.19
3428;BME280;1727;42.624;23.406;2022-11-20T03:36:12;94194.78;;;18.37;70.36
3428;BME280;1727;42.624;23.406;2022-11-20T03:38:39;94199.69;;;18.40;70.49
3428;BME280;1727;42.624;23.406;2022-11-20T03:41:09;94192.31;;;18.35;70.57
3428;BME280;1727;42.624;23.406;2022-11-20T03:43:36;94213.19;;;18.38;70.33
3428;BME280;1727;42.624;23.406;2022-11-20T03:46:04;94206.44;;;18.36;70.42
3428;BME280;1727;42.624;23.406;2022-11-20T03:48:32;94190.84;;;18.26;70.52
3428;BME280;1727;42.624;23.406;2022-11-20T03:51:10;94199.66;;;18.33;70.53
3428;BME280;1727;42.624;23.406;2022-11-20T03:53:38;94192.47;;;18.27;70.68
3428;BME280;1727;42.624;23.406;2022-11-20T03:56:06;94192.47;;;18.27;70.61
3428;BME280;1727;42.624;23.406;2022-11-20T03:58:34;94197.22;;;18.32;70.80
3428;BME280;1727;42.624;23.406;2022-11-20T04:01:06;94206.59;;;18.27;70.08
3428;BME280;1727;42.624;23.406;2022-11-20T04:03:35;94212.31;;;18.31;69.78
3428;BME280;1727;42.624;23.406;2022-11-20T04:06:03;94205.38;;;18.30;69.27
3428;BME280;1727;42.624;23.406;2022-11-20T04:08:30;94209.28;;;18.34;69.20
3428;BME280;1727;42.624;23.406;2022-11-20T04:11:08;94185.16;;;18.36;69.66
3428;BME280;1727;42.624;23.406;2022-11-20T04:13:35;94211.97;;;18.41;69.89
3428;BME280;1727;42.624;23.406;2022-11-20T04:16:02;94193.75;;;18.38;68.97
3428;BME280;1727;42.624;23.406;2022-11-20T04:18:29;94213.97;;;18.32;68.87
3428;BME280;1727;42.624;23.406;2022-11-20T04:20:58;94214.97;;;18.31;68.68
3428;BME280;1727;42.624;23.406;2022-11-20T04:23:25;94205.25;;;18.17;69.45
3428;BME280;1727;42.624;23.406;2022-11-20T04:25:52;94224.16;;;18.29;69.20
3428;BME280;1727;42.624;23.406;2022-11-20T04:28:19;94224.59;;;18.32;70.37
3428;BME280;1727;42.624;23.406;2022-11-20T04:30:46;94232.78;;;18.37;69.51
3428;BME280;1727;42.624;23.406;2022-11-20T04:33:13;94246.06;;;18.37;70.01
3428;BME280;1727;42.624;23.406;2022-11-20T04:35:40;94243.63;;;18.36;69.22
3428;BME280;1727;42.624;23.406;2022-11-20T04:38:08;94249.66;;;18.23;70.11
3428;BME280;1727;42.624;23.406;2022-11-20T04:40:35;94230.06;;;18.24;71.33
3428;BME280;1727;42.624;23.406;2022-11-20T04:43:01;94240.56;;;18.11;71.45
3428;BME280;1727;42.624;23.406;2022-11-20T04:45:28;94229.78;;;18.19;72.20
3428;BME280;1727;42.624;23.406;2022-11-20T04:47:55;94227.28;;;18.11;72.26
3428;BME280;1727;42.624;23.406;2022-11-20T04:50:22;94225.44;;;18.11;73.15
3428;BME280;1727;42.624;23.406;2022-11-20T04:52:49;94228.34;;;18.16;72.83
3428;BME280;1727;42.624;23.406;2022-11-20T04:55:17;94206.81;;;18.05;73.62
3428;BME280;1727;42.624;23.406;2022-11-20T04:57:43;94206.34;;;17.94;73.58
3428;BME280;1727;42.624;23.406;2022-11-20T05:00:11;94218.00;;;18.00;73.44
3428;BME280;1727;42.624;23.406;2022-11-20T05:02:38;94211.88;;;18.00;73.36
3428;BME280;1727;42.624;23.406;2022-11-20T05:05:05;94226.78;;;18.01;73.38
3428;BME280;1727;42.624;23.406;2022-11-20T05:07:32;94218.59;;;17.95;74.14
3428;BME280;1727;42.624;23.406;2022-11-20T05:09:59;94219.72;;;17.86;76.32
3428;BME280;1727;42.624;23.406;2022-11-20T05:12:27;94220.44;;;17.74;80.46
3428;BME280;1727;42.624;23.406;2022-11-20T05:14:54;94225.69;;;17.67;81.81
3428;BME280;1727;42.624;23.406;2022-11-20T05:17:20;94209.09;;;17.44;84.27
3428;BME280;1727;42.624;23.406;2022-11-20T05:19:47;94210.28;;;17.41;84.98
3428;BME280;1727;42.624;23.406;2022-11-20T05:22:14;94205.84;;;17.27;85.24
3428;BME280;1727;42.624;23.406;2022-11-20T05:24:41;94200.09;;;17.23;85.90
3428;BME280;1727;42.624;23.406;2022-11-20T05:27:08;94175.19;;;18.10;100.00
3428;BME280;1727;42.624;23.406;2022-11-20T05:29:36;94175.63;;;18.48;100.00
3428;BME280;1727;42.624;23.406;2022-11-20T05:32:03;94188.56;;;18.92;100.00
3428;BME280;1727;42.624;23.406;2022-11-20T05:34:31;94215.31;;;19.32;89.20
3428;BME280;1727;42.624;23.406;2022-11-20T05:36:58;94225.44;;;19.56;83.12
3428;BME280;1727;42.624;23.406;2022-11-20T05:56:24;94192.03;;;18.86;79.75
3428;BME280;1727;42.624;23.406;2022-11-20T05:58:50;94196.81;;;18.63;80.07
3428;BME280;1727;42.624;23.406;2022-11-20T06:01:19;94201.06;;;18.01;81.61
3428;BME280;1727;42.624;23.406;2022-11-20T06:03:47;94199.59;;;17.71;82.33
3428;BME280;1727;42.624;23.406;2022-11-20T06:06:16;94178.66;;;17.40;85.09
3428;BME280;1727;42.624;23.406;2022-11-20T06:08:43;94186.25;;;17.28;83.84
3428;BME280;1727;42.624;23.406;2022-11-20T06:11:12;94192.91;;;17.17;84.44
3428;BME280;1727;42.624;23.406;2022-11-20T06:13:46;94160.72;;;17.06;84.24
3428;BME280;1727;42.624;23.406;2022-11-20T06:16:14;94185.88;;;17.10;83.35
3428;BME280;1727;42.624;23.406;2022-11-20T06:18:42;94182.91;;;17.19;83.90
3428;BME280;1727;42.624;23.406;2022-11-20T06:21:10;94188.53;;;17.31;82.85
3428;BME280;1727;42.624;23.406;2022-11-20T06:23:38;94193.22;;;17.29;82.91
3428;BME280;1727;42.624;23.406;2022-11-20T06:26:21;94204.25;;;17.32;83.23
3428;BME280;1727;42.624;23.406;2022-11-20T06:28:51;94212.16;;;17.26;82.77
3428;BME280;1727;42.624;23.406;2022-11-20T06:31:19;94195.47;;;17.32;82.53
3428;BME280;1727;42.624;23.406;2022-11-20T06:33:47;94212.69;;;17.36;82.73
3428;BME280;1727;42.624;23.406;2022-11-20T06:36:17;94199.47;;;17.21;83.30
3428;BME280;1727;42.624;23.406;2022-11-20T06:38:50;94200.66;;;17.19;82.88
3428;BME280;1727;42.624;23.406;2022-11-20T06:41:18;94215.81;;;17.25;82.44
3428;BME280;1727;42.624;23.406;2022-11-20T06:43:46;94206.56;;;17.36;81.72
3428;BME280;1727;42.624;23.406;2022-11-20T06:46:15;94202.44;;;17.33;82.19
3428;BME280;1727;42.624;23.406;2022-11-20T06:48:43;94195.56;;;17.39;81.72
3428;BME280;1727;42.624;23.406;2022-11-20T06:51:10;94200.44;;;17.35;81.99
3428;BME280;1727;42.624;23.406;2022-11-20T06:53:37;94211.56;;;17.45;80.84
3428;BME280;1727;42.624;23.406;2022-11-20T06:56:05;94207.88;;;17.46;80.04
3428;BME280;1727;42.624;23.406;2022-11-20T06:58:33;94212.88;;;17.56;80.65
3428;BME280;1727;42.624;23.406;2022-11-20T07:01:00;94212.50;;;17.59;79.19
3428;BME280;1727;42.624;23.406;2022-11-20T07:03:28;94224.91;;;17.73;79.39
3428;BME280;1727;42.624;23.406;2022-11-20T07:05:55;94210.47;;;17.61;77.95
3428;BME280;1727;42.624;23.406;2022-11-20T07:08:22;94222.03;;;17.68;77.68
3428;BME280;1727;42.624;23.406;2022-11-20T07:10:49;94226.13;;;17.71;77.58
3428;BME280;1727;42.624;23.406;2022-11-20T07:13:16;94221.63;;;17.71;77.72
3428;BME280;1727;42.624;23.406;2022-11-20T07:15:43;94224.16;;;17.79;76.43
3428;BME280;1727;42.624;23.406;2022-11-20T07:18:10;94231.41;;;17.92;76.86
3428;BME280;1727;42.624;23.406;2022-11-20T07:20:38;94238.00;;;17.96;76.89
3428;BME280;1727;42.624;23.406;2022-11-20T07:23:05;94224.34;;;17.99;77.64
3428;BME280;1727;42.624;23.406;2022-11-20T07:25:31;94223.00;;;17.88;76.12
3428;BME280;1727;42.624;23.406;2022-11-20T07:27:59;94230.47;;;18.00;79.47
3428;BME280;1727;42.624;23.406;2022-11-20T07:30:26;94223.56;;;18.05;77.11
3428;BME280;1727;42.624;23.406;2022-11-20T07:32:54;94227.91;;;18.13;77.44
3428;BME280;1727;42.624;23.406;2022-11-20T07:35:21;94226.22;;;18.05;75.19
3428;BME280;1727;42.624;23.406;2022-11-20T07:37:50;94228.63;;;18.00;75.47
3428;BME280;1727;42.624;23.406;2022-11-20T07:40:17;94229.66;;;17.99;76.21
3428;BME280;1727;42.624;23.406;2022-11-20T07:42:48;94217.56;;;17.97;76.33
3428;BME280;1727;42.624;23.406;2022-11-20T07:45:15;94234.13;;;17.99;75.49
3428;BME280;1727;42.624;23.406;2022-11-20T07:47:42;94217.06;;;17.86;75.61
3428;BME280;1727;42.624;23.406;2022-11-20T07:50:09;94220.28;;;17.82;75.68
3428;BME280;1727;42.624;23.406;2022-11-20T07:52:36;94221.44;;;17.94;75.73
3428;BME280;1727;42.624;23.406;2022-11-20T07:55:06;94216.19;;;18.01;75.75
3428;BME280;1727;42.624;23.406;2022-11-20T07:57:33;94222.56;;;18.06;76.03
3428;BME280;1727;42.624;23.406;2022-11-20T08:00:00;94228.63;;;18.00;75.20
3428;BME280;1727;42.624;23.406;2022-11-20T08:02:27;94228.44;;;18.02;74.71
3428;BME280;1727;42.624;23.406;2022-11-20T08:04:53;94243.84;;;18.13;75.60
3428;BME280;1727;42.624;23.406;2022-11-20T08:07:20;94233.25;;;18.19;76.56
3428;BME280;1727;42.624;23.406;2022-11-20T08:09:47;94222.88;;;17.97;75.76
3428;BME280;1727;42.624;23.406;2022-11-20T08:12:19;94226.41;;;18.04;75.50
3428;BME280;1727;42.624;23.406;2022-11-20T08:15:05;94224.53;;;17.98;75.72
3428;BME280;1727;42.624;23.406;2022-11-20T08:17:32;94215.41;;;18.07;75.33
3428;BME280;1727;42.624;23.406;2022-11-20T08:19:59;94220.81;;;18.20;74.43
3428;BME280;1727;42.624;23.406;2022-11-20T08:22:25;94224.13;;;18.22;73.77
3428;BME280;1727;42.624;23.406;2022-11-20T08:24:52;94209.00;;;18.22;74.70
3428;BME280;1727;42.624;23.406;2022-11-20T08:27:20;94205.53;;;18.22;73.90
3428;BME280;1727;42.624;23.406;2022-11-20T08:29:47;94205.69;;;18.20;73.71
3428;BME280;1727;42.624;23.406;2022-11-20T08:32:14;94226.56;;;18.23;75.09
3428;BME280;1727;42.624;23.406;2022-11-20T08:34:41;94223.34;;;18.28;75.26
3428;BME280;1727;42.624;23.406;2022-11-20T08:37:07;94235.81;;;18.27;74.44
3428;BME280;1727;42.624;23.406;2022-11-20T08:39:34;94223.78;;;18.32;74.29
3428;BME280;1727;42.624;23.406;2022-11-20T08:42:01;94219.66;;;18.29;73.92
3428;BME280;1727;42.624;23.406;2022-11-20T08:44:29;94219.72;;;18.36;73.40
3428;BME280;1727;42.624;23.406;2022-11-20T08:46:56;94231.53;;;18.33;73.10
3428;BME280;1727;42.624;23.406;2022-11-20T08:49:23;94240.03;;;18.50;73.55
3428;BME280;1727;42.624;23.406;2022-11-20T08:51:50;94255.28;;;18.63;73.82
3428;BME280;1727;42.624;23.406;2022-11-20T08:54:20;94272.09;;;18.70;72.53
3428;BME280;1727;42.624;23.406;2022-11-20T08:56:47;94277.22;;;18.78;73.63
3428;BME280;1727;42.624;23.406;2022-11-20T08:59:14;94277.50;;;18.83;75.03
3428;BME280;1727;42.624;23.406;2022-11-20T09:01:42;94277.22;;;18.78;73.20
3428;BME280;1727;42.624;23.406;2022-11-20T09:04:09;94263.94;;;18.78;73.03
3428;BME280;1727;42.624;23.406;2022-11-20T09:06:37;94278.66;;;18.74;71.60
3428;BME280;1727;42.624;23.406;2022-11-20T09:09:03;94254.88;;;18.66;72.22
3428;BME280;1727;42.624;23.406;2022-11-20T09:11:31;94266.75;;;18.70;72.59
3428;BME280;1727;42.624;23.406;2022-11-20T09:13:57;94271.56;;;18.81;73.83
3428;BME280;1727;42.624;23.406;2022-11-20T09:16:25;94261.75;;;18.81;74.46
3428;BME280;1727;42.624;23.406;2022-11-20T09:18:53;94262.09;;;18.78;75.24
3428;BME280;1727;42.624;23.406;2022-11-20T09:21:29;94262.69;;;18.74;75.76
3428;BME280;1727;42.624;23.406;2022-11-20T09:23:56;94267.38;;;18.72;76.98
3428;BME280;1727;42.624;23.406;2022-11-20T09:26:23;94256.13;;;18.70;76.82
3428;BME280;1727;42.624;23.406;2022-11-20T09:28:49;94265.34;;;18.74;76.54
3428;BME280;1727;42.624;23.406;2022-11-20T09:31:21;94260.28;;;18.79;76.75
3428;BME280;1727;42.624;23.406;2022-11-20T09:33:48;94257.38;;;18.74;75.68
3428;BME280;1727;42.624;23.406;2022-11-20T09:36:16;94267.38;;;18.72;77.38
3428;BME280;1727;42.624;23.406;2022-11-20T09:38:44;94250.09;;;18.54;76.98
3428;BME280;1727;42.624;23.406;2022-11-20T09:41:26;94259.06;;;18.53;78.89
3428;BME280;1727;42.624;23.406;2022-11-20T09:44:02;94248.34;;;18.40;78.65
3428;BME280;1727;42.624;23.406;2022-11-20T09:46:40;94250.75;;;18.35;79.13
3428;BME280;1727;42.624;23.406;2022-11-20T09:49:23;94246.22;;;18.29;79.47
3428;BME280;1727;42.624;23.406;2022-11-20T09:51:59;94251.19;;;18.11;80.14
3428;BME280;1727;42.624;23.406;2022-11-20T09:54:30;94234.97;;;17.99;80.56
3428;BME280;1727;42.624;23.406;2022-11-20T09:56:59;94243.84;;;17.91;81.41
3428;BME280;1727;42.624;23.406;2022-11-20T09:59:34;94249.72;;;17.87;80.92
3428;BME280;1727;42.624;23.406;2022-11-20T10:02:12;94229.66;;;17.78;81.06
3428;BME280;1727;42.624;23.406;2022-11-20T10:04:45;94210.75;;;17.66;82.44
3428;BME280;1727;42.624;23.406;2022-11-20T10:07:20;94206.81;;;17.41;85.93
3428;BME280;1727;42.624;23.406;2022-11-20T10:09:51;94213.72;;;17.20;87.69
3428;BME280;1727;42.624;23.406;2022-11-20T10:12:25;94203.50;;;17.17;88.49
3428;BME280;1727;42.624;23.406;2022-11-20T10:15:06;94187.34;;;17.12;89.07
3428;BME280;1727;42.624;23.406;2022-11-20T10:17:56;94181.91;;;17.20;89.30
3428;BME280;1727;42.624;23.406;2022-11-20T10:20:29;94185.78;;;17.03;90.74
3428;BME280;1727;42.624;23.406;2022-11-20T10:23:18;94188.25;;;17.04;90.91
3428;BME280;1727;42.624;23.406;2022-11-20T10:25:53;94182.59;;;17.08;91.03
3428;BME280;1727;42.624;23.406;2022-11-20T10:28:34;94182.66;;;17.14;91.12
3428;BME280;1727;42.624;23.406;2022-11-20T10:31:06;94171.53;;;17.04;95.06
3428;BME280;1727;42.624;23.406;2022-11-20T10:33:37;94177.94;;;16.95;96.16
3428;BME280;1727;42.624;23.406;2022-11-20T10:36:10;94190.03;;;16.83;97.35
3428;BME280;1727;42.624;23.406;2022-11-20T10:38:44;94184.81;;;16.45;98.51
3428;BME280;1727;42.624;23.406;2022-11-20T10:41:17;94197.25;;;16.30;99.20
3428;BME280;1727;42.624;23.406;2022-11-20T10:43:56;94188.84;;;16.26;99.63
3428;BME280;1727;42.624;23.406;2022-11-20T10:46:36;94188.13;;;16.32;98.08
3428;BME280;1727;42.624;23.406;2022-11-20T10:49:11;94183.28;;;16.36;98.29
3428;BME280;1727;42.624;23.406;2022-11-20T10:51:49;94169.41;;;16.34;98.35
3428;BME280;1727;42.624;23.406;2022-11-20T10:54:22;94173.50;;;16.36;97.17
3428;BME280;1727;42.624;23.406;2022-11-20T10:56:56;94194.88;;;16.35;97.69
3428;BME280;1727;42.624;23.406;2022-11-20T10:59:59;94189.13;;;16.31;97.93
3428;BME280;1727;42.624;23.406;2022-11-20T11:02:34;94192.50;;;16.25;97.76
3428;BME280;1727;42.624;23.406;2022-11-20T11:05:10;94196.72;;;16.20;97.64
3428;BME280;1727;42.624;23.406;2022-11-20T11:07:40;94211.75;;;16.34;97.45
3428;BME280;1727;42.624;23.406;2022-11-20T11:10:16;94227.69;;;16.49;96.52
3428;BME280;1727;42.624;23.406;2022-11-20T11:12:46;94236.53;;;16.56;97.14
3428;BME280;1727;42.624;23.406;2022-11-20T11:15:24;94243.47;;;16.57;98.35
3428;BME280;1727;42.624;23.406;2022-11-20T11:17:52;94222.00;;;16.52;99.01
3428;BME280;1727;42.624;23.406;2022-11-20T11:20:20;94260.72;;;16.38;100.00
3428;BME280;1727;42.624;23.406;2022-11-20T11:22:49;94287.00;;;16.39;100.00
3428;BME280;1727;42.624;23.406;2022-11-20T11:25:26;94282.25;;;16.35;100.00
3428;BME280;1727;42.624;23.406;2022-11-20T11:27:55;94234.88;;;16.25;100.00
3428;BME280;1727;42.624;23.406;2022-11-20T11:30:23;94241.72;;;16.20;100.00
3428;BME280;1727;42.624;23.406;2022-11-20T11:32:51;94250.28;;;16.22;100.00
3428;BME280;1727;42.624;23.406;2022-11-20T11:38:51;94286.81;;;16.26;100.00
3428;BME280;1727;42.624;23.406;2022-11-20T11:41:23;94300.50;;;16.30;100.00
3428;BME280;1727;42.624;23.406;2022-11-20T11:43:53;94300.88;;;16.27;100.00
3428;BME280;1727;42.624;23.406;2022-11-20T11:46:39;94305.19;;;16.05;100.00
3428;BME280;1727;42.624;23.406;2022-11-20T11:49:16;94280.44;;;15.75;100.00
3428;BME280;1727;42.624;23.406;2022-11-20T11:52:00;94277.81;;;15.44;100.00
3428;BME280;1727;42.624;23.406;2022-11-20T11:54:33;94265.59;;;15.43;100.00
3428;BME280;1727;42.624;23.406;2022-11-20T11:57:05;94257.94;;;15.48;100.00
3428;BME280;1727;42.624;23.406;2022-11-20T11:59:45;94261.28;;;15.42;99.62
3428;BME280;1727;42.624;23.406;2022-11-20T12:02:24;94253.72;;;15.39;96.86
3428;BME280;1727;42.624;23.406;2022-11-20T12:04:56;94249.13;;;15.33;97.06
3428;BME280;1727;42.624;23.406;2022-11-20T12:07:33;94241.06;;;15.26;97.19
3428;BME280;1727;42.624;23.406;2022-11-20T12:10:03;94235.47;;;15.21;96.77
3428;BME280;1727;42.624;23.406;2022-11-20T12:12:36;94250.03;;;15.17;97.42
3428;BME280;1727;42.624;23.406;2022-11-20T12:15:09;94252.44;;;15.04;95.91
3428;BME280;1727;42.624;23.406;2022-11-20T12:17:42;94261.38;;;14.95;95.48
3428;BME280;1727;42.624;23.406;2022-11-20T12:20:13;94261.28;;;14.72;94.90
3428;BME280;1727;42.624;23.406;2022-11-20T12:22:45;94263.28;;;14.70;96.46
3428;BME280;1727;42.624;23.406;2022-11-20T12:25:19;94258.50;;;14.65;96.70
3428;BME280;1727;42.624;23.406;2022-11-20T12:30:45;94254.28;;;14.48;98.40
3428;BME280;1727;42.624;23.406;2022-11-20T12:36:10;94275.06;;;14.43;97.85
3428;BME280;1727;42.624;23.406;2022-11-20T12:39:07;94280.34;;;14.35;97.27
3428;BME280;1727;42.624;23.406;2022-11-20T12:41:48;94250.66;;;14.33;98.86
3428;BME280;1727;42.624;23.406;2022-11-20T12:45:02;94200.81;;;14.38;99.20
3428;BME280;1727;42.624;23.406;2022-11-20T12:47:47;94180.38;;;14.48;98.88
3428;BME280;1727;42.624;23.406;2022-11-20T12:50:23;94183.63;;;14.58;96.87
3428;BME280;1727;42.624;23.406;2022-11-20T12:53:03;94176.88;;;14.55;97.42
3428;BME280;1727;42.624;23.406;2022-11-20T12:55:43;94181.69;;;14.36;100.00
3428;BME280;1727;42.624;23.406;2022-11-20T12:58:23;94166.22;;;14.16;100.00
3428;BME280;1727;42.624;23.406;2022-11-20T13:01:00;94168.91;;;14.08;100.00
3428;BME280;1727;42.624;23.406;2022-11-20T13:03:40;94127.34;;;14.18;100.00
3428;BME280;1727;42.624;23.406;2022-11-20T13:06:15;94137.00;;;14.34;100.00
3428;BME280;1727;42.624;23.406;2022-11-20T13:08:47;94114.84;;;14.51;100.00
3428;BME280;1727;42.624;23.406;2022-11-20T13:11:19;94113.91;;;14.75;99.28
3428;BME280;1727;42.624;23.406;2022-11-20T13:14:04;94120.00;;;14.99;97.44
3428;BME280;1727;42.624;23.406;2022-11-20T13:16:43;94136.94;;;15.12;96.05
3428;BME280;1727;42.624;23.406;2022-11-20T13:19:15;94142.25;;;15.27;96.68
3428;BME280;1727;42.624;23.406;2022-11-20T13:21:43;94165.28;;;15.41;93.21
3428;BME280;1727;42.624;23.406;2022-11-20T13:24:22;94181.00;;;15.58;93.73
3428;BME280;1727;42.624;23.406;2022-11-20T13:27:00;94178.22;;;15.59;94.00
3428;BME280;1727;42.624;23.406;2022-11-20T13:29:27;94168.97;;;15.55;93.30
3428;BME280;1727;42.624;23.406;2022-11-20T13:42:21;94192.25;;;15.60;93.71
3428;BME280;1727;42.624;23.406;2022-11-20T13:44:53;94176.88;;;15.40;92.84
3428;BME280;1727;42.624;23.406;2022-11-20T13:47:23;94192.63;;;15.34;92.56
3428;BME280;1727;42.624;23.406;2022-11-20T13:49:51;94217.41;;;15.33;93.21
3428;BME280;1727;42.624;23.406;2022-11-20T13:52:35;94220.81;;;15.41;93.55
3428;BME280;1727;42.624;23.406;2022-11-20T13:58:47;94216.88;;;15.37;93.33
3428;BME280;1727;42.624;23.406;2022-11-20T14:01:17;94227.22;;;15.47;92.54
3428;BME280;1727;42.624;23.406;2022-11-20T14:03:47;94232.97;;;15.50;91.82
3428;BME280;1727;42.624;23.406;2022-11-20T14:06:23;94240.53;;;15.54;91.91
3428;BME280;1727;42.624;23.406;2022-11-20T14:15:37;94210.97;;;15.58;93.38
3428;BME280;1727;42.624;23.406;2022-11-20T14:18:12;94204.97;;;15.64;94.23
3428;BME280;1727;42.624;23.406;2022-11-20T14:20:41;94201.91;;;15.75;94.71
3428;BME280;1727;42.624;23.406;2022-11-20T14:23:09;94213.09;;;15.63;92.57
3428;BME280;1727;42.624;23.406;2022-11-20T14:25:37;94203.88;;;15.28;93.84
3428;BME280;1727;42.624;23.406;2022-11-20T14:28:04;94206.94;;;15.39;94.07
3428;BME280;1727;42.624;23.406;2022-11-20T14:30:40;94215.81;;;15.46;93.75